createdAt,value
2018-08-18T00:00:59.913Z,980.62
2018-08-18T00:02:00.158Z,980.62
2018-08-18T00:03:00.401Z,980.65
2018-08-18T00:04:00.648Z,980.62
2018-08-18T00:05:00.892Z,980.62
2018-08-18T00:06:01.138Z,980.59
2018-08-18T00:07:01.377Z,980.61
2018-08-18T00:08:01.621Z,980.58
2018-08-18T00:09:01.866Z,980.58
2018-08-18T00:10:02.111Z,980.62
2018-08-18T00:11:02.355Z,980.60
2018-08-18T00:12:02.603Z,980.58
2018-08-18T00:13:02.845Z,980.61
2018-08-18T00:14:03.089Z,980.61
2018-08-18T00:15:03.333Z,980.61
2018-08-18T00:16:03.579Z,980.62
2018-08-18T00:17:03.821Z,980.63
2018-08-18T00:18:04.067Z,980.64
2018-08-18T00:19:04.311Z,980.62
2018-08-18T00:20:04.555Z,980.65
2018-08-18T00:21:04.800Z,980.69
2018-08-18T00:22:05.045Z,980.73
2018-08-18T00:23:05.290Z,980.71
2018-08-18T00:24:05.535Z,980.78
2018-08-18T00:25:05.779Z,980.82
2018-08-18T00:26:06.021Z,980.81
2018-08-18T00:27:06.266Z,980.79
2018-08-18T00:28:06.509Z,980.79
2018-08-18T00:29:06.754Z,980.76
2018-08-18T00:30:06.998Z,980.77
2018-08-18T00:31:07.242Z,980.71
2018-08-18T00:32:07.487Z,980.72
2018-08-18T00:33:07.731Z,980.65
2018-08-18T00:34:08.010Z,980.65
2018-08-18T00:35:08.218Z,980.65
2018-08-18T00:36:08.461Z,980.60
2018-08-18T00:37:08.721Z,980.61
2018-08-18T00:38:08.951Z,980.62
2018-08-18T00:39:09.195Z,980.58
2018-08-18T00:40:09.435Z,980.60
2018-08-18T00:41:09.680Z,980.62
2018-08-18T00:42:09.924Z,980.58
2018-08-18T00:43:10.167Z,980.60
2018-08-18T00:44:10.412Z,980.62
2018-08-18T00:45:10.653Z,980.54
2018-08-18T00:46:10.898Z,980.52
2018-08-18T00:47:11.141Z,980.55
2018-08-18T00:48:11.387Z,980.51
2018-08-18T00:49:11.629Z,980.49
2018-08-18T00:50:11.872Z,980.54
2018-08-18T00:51:12.115Z,980.53
2018-08-18T00:52:12.360Z,980.52
2018-08-18T00:53:12.605Z,980.52
2018-08-18T00:54:12.848Z,980.53
2018-08-18T00:55:13.091Z,980.55
2018-08-18T00:56:13.338Z,980.56
2018-08-18T00:57:13.580Z,980.60
2018-08-18T00:58:13.823Z,980.62
2018-08-18T00:59:14.067Z,980.60
2018-08-18T01:00:14.310Z,980.61
2018-08-18T01:01:14.553Z,980.61
2018-08-18T01:02:14.797Z,980.60
2018-08-18T01:03:15.039Z,980.62
2018-08-18T01:04:15.282Z,980.64
2018-08-18T01:05:15.526Z,980.62
2018-08-18T01:06:15.770Z,980.65
2018-08-18T01:07:16.014Z,980.65
2018-08-18T01:08:16.257Z,980.61
2018-08-18T01:09:16.501Z,980.59
2018-08-18T01:10:16.745Z,980.62
2018-08-18T01:11:17.030Z,980.63
2018-08-18T01:12:17.323Z,980.68
2018-08-18T01:13:17.518Z,980.72
2018-08-18T01:14:17.832Z,980.73
2018-08-18T01:15:17.961Z,980.75
2018-08-18T01:16:18.204Z,980.77
2018-08-18T01:17:18.449Z,980.80
2018-08-18T01:18:18.692Z,980.83
2018-08-18T01:19:18.936Z,980.80
2018-08-18T01:20:19.179Z,980.79
2018-08-18T01:21:19.442Z,980.78
2018-08-18T01:22:19.666Z,980.77
2018-08-18T01:23:19.911Z,980.74
2018-08-18T01:24:20.151Z,980.76
2018-08-18T01:25:20.397Z,980.82
2018-08-18T01:26:20.641Z,980.79
2018-08-18T01:27:20.883Z,980.84
2018-08-18T01:28:21.125Z,980.85
2018-08-18T01:29:21.370Z,980.87
2018-08-18T01:30:21.614Z,980.92
2018-08-18T01:31:21.857Z,980.89
2018-08-18T01:32:22.101Z,980.91
2018-08-18T01:33:22.345Z,980.90
2018-08-18T01:34:22.588Z,980.89
2018-08-18T01:35:22.831Z,980.88
2018-08-18T01:36:23.075Z,980.90
2018-08-18T01:37:23.318Z,980.89
2018-08-18T01:38:23.560Z,980.89
2018-08-18T01:39:23.807Z,980.87
2018-08-18T01:40:24.047Z,980.86
2018-08-18T01:41:24.290Z,980.85
2018-08-18T01:42:24.533Z,980.86
2018-08-18T01:43:24.774Z,980.83
2018-08-18T01:44:25.017Z,980.82
2018-08-18T01:45:25.262Z,980.82
2018-08-18T01:46:25.504Z,980.84
2018-08-18T01:47:25.748Z,980.85
2018-08-18T01:48:25.992Z,980.86
2018-08-18T01:49:26.233Z,980.86
2018-08-18T01:50:26.477Z,980.86
2018-08-18T01:51:26.720Z,980.87
2018-08-18T01:52:26.964Z,980.83
2018-08-18T01:53:27.206Z,980.87
2018-08-18T01:54:27.451Z,980.87
2018-08-18T01:55:27.690Z,980.88
2018-08-18T01:56:27.931Z,980.88
2018-08-18T01:57:28.172Z,980.93
2018-08-18T01:58:28.415Z,980.98
2018-08-18T01:59:28.658Z,981.02
2018-08-18T02:00:28.901Z,981.05
2018-08-18T02:01:29.145Z,981.09
2018-08-18T02:02:29.388Z,981.08
2018-08-18T02:03:29.634Z,981.08
2018-08-18T02:04:29.877Z,981.04
2018-08-18T02:05:30.128Z,981.05
2018-08-18T02:06:30.365Z,980.97
2018-08-18T02:07:30.607Z,980.95
2018-08-18T02:08:30.852Z,980.94
2018-08-18T02:09:31.095Z,980.94
2018-08-18T02:10:31.338Z,980.93
2018-08-18T02:11:31.580Z,980.91
2018-08-18T02:12:31.824Z,980.91
2018-08-18T02:13:32.068Z,980.92
2018-08-18T02:14:32.310Z,980.95
2018-08-18T02:15:32.590Z,980.98
2018-08-18T02:16:32.795Z,980.97
2018-08-18T02:17:33.039Z,980.98
2018-08-18T02:18:33.279Z,980.97
2018-08-18T02:19:33.522Z,980.96
2018-08-18T02:20:33.766Z,981.00
2018-08-18T02:21:34.010Z,980.96
2018-08-18T02:22:34.251Z,980.99
2018-08-18T02:23:34.497Z,981.01
2018-08-18T02:24:34.746Z,981.02
2018-08-18T02:25:34.984Z,980.99
2018-08-18T02:26:35.228Z,981.02
2018-08-18T02:27:35.474Z,981.05
2018-08-18T02:28:35.717Z,981.03
2018-08-18T02:29:35.960Z,981.06
2018-08-18T02:30:36.204Z,981.09
2018-08-18T02:31:36.448Z,981.10
2018-08-18T02:32:36.691Z,981.12
2018-08-18T02:33:36.936Z,981.11
2018-08-18T02:34:37.179Z,981.10
2018-08-18T02:35:37.427Z,981.10
2018-08-18T02:36:37.666Z,981.05
2018-08-18T02:37:37.909Z,981.04
2018-08-18T02:38:38.153Z,981.02
2018-08-18T02:39:38.396Z,980.96
2018-08-18T02:40:38.640Z,980.96
2018-08-18T02:41:38.884Z,980.94
2018-08-18T02:42:39.128Z,980.95
2018-08-18T02:43:39.372Z,980.96
2018-08-18T02:44:39.616Z,980.91
2018-08-18T02:45:39.861Z,980.96
2018-08-18T02:46:40.106Z,980.96
2018-08-18T02:47:40.347Z,981.06
2018-08-18T02:48:40.590Z,981.07
2018-08-18T02:49:40.835Z,981.08
2018-08-18T02:50:41.078Z,981.08
2018-08-18T02:51:41.320Z,981.11
2018-08-18T02:52:41.567Z,981.12
2018-08-18T02:53:41.807Z,981.10
2018-08-18T02:54:42.054Z,981.08
2018-08-18T02:55:42.297Z,981.07
2018-08-18T02:56:42.545Z,981.06
2018-08-18T02:57:42.786Z,981.05
2018-08-18T02:58:43.028Z,981.03
2018-08-18T02:59:43.269Z,981.06
2018-08-18T03:00:43.512Z,981.03
2018-08-18T03:01:43.757Z,981.04
2018-08-18T03:02:44.004Z,981.04
2018-08-18T03:03:44.243Z,981.05
2018-08-18T03:04:44.487Z,981.04
2018-08-18T03:05:44.728Z,981.05
2018-08-18T03:06:44.978Z,981.06
2018-08-18T03:07:45.254Z,981.04
2018-08-18T03:08:45.459Z,981.07
2018-08-18T03:09:45.703Z,981.06
2018-08-18T03:10:45.948Z,981.09
2018-08-18T03:11:46.191Z,981.06
2018-08-18T03:12:46.434Z,981.05
2018-08-18T03:13:46.678Z,981.03
2018-08-18T03:14:46.922Z,981.05
2018-08-18T03:15:47.166Z,981.05
2018-08-18T03:16:47.410Z,981.05
2018-08-18T03:17:47.654Z,981.02
2018-08-18T03:18:47.897Z,981.03
2018-08-18T03:19:48.142Z,981.03
2018-08-18T03:20:48.385Z,981.06
2018-08-18T03:21:48.628Z,981.05
2018-08-18T03:22:48.871Z,981.06
2018-08-18T03:23:49.116Z,981.04
2018-08-18T03:24:49.358Z,981.09
2018-08-18T03:25:49.601Z,981.06
2018-08-18T03:26:49.846Z,981.07
2018-08-18T03:27:50.090Z,981.09
2018-08-18T03:28:50.334Z,981.08
2018-08-18T03:29:50.579Z,981.07
2018-08-18T03:30:50.823Z,981.13
2018-08-18T03:31:51.067Z,981.14
2018-08-18T03:32:51.310Z,981.14
2018-08-18T03:33:51.554Z,981.13
2018-08-18T03:34:51.797Z,981.11
2018-08-18T03:35:52.042Z,981.14
2018-08-18T03:36:52.284Z,981.12
2018-08-18T03:37:52.528Z,981.10
2018-08-18T03:38:52.771Z,981.09
2018-08-18T03:39:53.014Z,981.09
2018-08-18T03:40:53.260Z,981.09
2018-08-18T03:41:53.503Z,981.14
2018-08-18T03:42:53.748Z,981.07
2018-08-18T03:43:53.990Z,981.09
2018-08-18T03:44:54.235Z,981.09
2018-08-18T03:45:54.478Z,981.13
2018-08-18T03:46:54.725Z,981.11
2018-08-18T03:47:54.966Z,981.10
2018-08-18T03:48:55.208Z,981.08
2018-08-18T03:49:55.453Z,981.12
2018-08-18T03:50:55.696Z,981.09
2018-08-18T03:51:55.939Z,981.08
2018-08-18T03:52:56.182Z,981.07
2018-08-18T03:53:56.429Z,981.06
2018-08-18T03:54:56.670Z,981.04
2018-08-18T03:55:56.913Z,981.05
2018-08-18T03:56:57.158Z,981.04
2018-08-18T03:57:57.402Z,981.08
2018-08-18T03:58:57.646Z,981.08
2018-08-18T03:59:57.889Z,981.13
2018-08-18T04:00:58.133Z,981.12
2018-08-18T04:01:58.467Z,981.16
2018-08-18T04:02:58.618Z,981.14
2018-08-18T04:03:58.862Z,981.20
2018-08-18T04:04:59.108Z,981.22
2018-08-18T04:05:59.351Z,981.26
2018-08-18T04:06:59.594Z,981.29
2018-08-18T04:07:59.837Z,981.26
2018-08-18T04:09:00.083Z,981.25
2018-08-18T04:10:00.323Z,981.28
2018-08-18T04:11:00.567Z,981.29
2018-08-18T04:12:00.812Z,981.30
2018-08-18T04:13:01.054Z,981.30
2018-08-18T04:14:01.302Z,981.31
2018-08-18T04:15:01.542Z,981.31
2018-08-18T04:16:01.787Z,981.31
2018-08-18T04:17:02.029Z,981.29
2018-08-18T04:18:02.275Z,981.29
2018-08-18T04:19:02.606Z,981.28
2018-08-18T04:20:02.761Z,981.27
2018-08-18T04:21:03.006Z,981.26
2018-08-18T04:22:03.249Z,981.29
2018-08-18T04:23:03.493Z,981.27
2018-08-18T04:24:03.737Z,981.25
2018-08-18T04:25:03.985Z,981.30
2018-08-18T04:26:04.226Z,981.27
2018-08-18T04:27:04.470Z,981.25
2018-08-18T04:28:04.713Z,981.28
2018-08-18T04:29:04.957Z,981.27
2018-08-18T04:30:05.203Z,981.31
2018-08-18T04:31:05.448Z,981.30
2018-08-18T04:32:05.691Z,981.27
2018-08-18T04:33:05.936Z,981.26
2018-08-18T04:34:06.180Z,981.27
2018-08-18T04:35:06.444Z,981.27
2018-08-18T04:36:06.669Z,981.25
2018-08-18T04:37:06.911Z,981.26
2018-08-18T04:38:07.154Z,981.27
2018-08-18T04:39:07.397Z,981.28
2018-08-18T04:40:07.642Z,981.32
2018-08-18T04:41:07.888Z,981.27
2018-08-18T04:42:08.134Z,981.27
2018-08-18T04:43:08.375Z,981.33
2018-08-18T04:44:08.617Z,981.33
2018-08-18T04:45:08.864Z,981.33
2018-08-18T04:46:09.108Z,981.31
2018-08-18T04:47:09.351Z,981.35
2018-08-18T04:48:09.595Z,981.36
2018-08-18T04:49:09.839Z,981.33
2018-08-18T04:50:10.084Z,981.34
2018-08-18T04:51:10.327Z,981.36
2018-08-18T04:52:10.572Z,981.40
2018-08-18T04:53:10.814Z,981.40
2018-08-18T04:54:11.061Z,981.43
2018-08-18T04:55:11.301Z,981.48
2018-08-18T04:56:11.544Z,981.46
2018-08-18T04:57:11.788Z,981.50
2018-08-18T04:58:12.034Z,981.52
2018-08-18T04:59:12.295Z,981.51
2018-08-18T05:00:12.521Z,981.54
2018-08-18T05:01:12.763Z,981.55
2018-08-18T05:02:13.006Z,981.54
2018-08-18T05:03:13.251Z,981.56
2018-08-18T05:04:13.495Z,981.54
2018-08-18T05:05:13.761Z,981.57
2018-08-18T05:06:13.982Z,981.59
2018-08-18T05:07:14.226Z,981.60
2018-08-18T05:08:14.471Z,981.61
2018-08-18T05:09:14.723Z,981.61
2018-08-18T05:10:14.958Z,981.64
2018-08-18T05:11:15.205Z,981.64
2018-08-18T05:12:15.446Z,981.64
2018-08-18T05:13:15.690Z,981.66
2018-08-18T05:14:15.931Z,981.67
2018-08-18T05:15:16.176Z,981.71
2018-08-18T05:16:16.420Z,981.65
2018-08-18T05:17:16.664Z,981.68
2018-08-18T05:18:16.908Z,981.69
2018-08-18T05:19:17.299Z,981.70
2018-08-18T05:20:17.395Z,981.69
2018-08-18T05:21:17.638Z,981.70
2018-08-18T05:22:17.884Z,981.71
2018-08-18T05:23:18.123Z,981.68
2018-08-18T05:24:18.369Z,981.71
2018-08-18T05:25:18.612Z,981.74
2018-08-18T05:26:18.858Z,981.75
2018-08-18T05:27:19.100Z,981.78
2018-08-18T05:28:19.346Z,981.83
2018-08-18T05:29:19.587Z,981.79
2018-08-18T05:30:19.833Z,981.83
2018-08-18T05:31:20.075Z,981.82
2018-08-18T05:32:20.320Z,981.83
2018-08-18T05:33:20.564Z,981.80
2018-08-18T05:34:20.808Z,981.85
2018-08-18T05:35:21.050Z,981.85
2018-08-18T05:36:21.327Z,981.84
2018-08-18T05:37:21.540Z,981.86
2018-08-18T05:38:21.784Z,981.84
2018-08-18T05:39:22.028Z,981.88
2018-08-18T05:40:22.271Z,981.87
2018-08-18T05:41:22.517Z,981.90
2018-08-18T05:42:22.760Z,981.90
2018-08-18T05:43:23.005Z,981.94
2018-08-18T05:44:23.248Z,981.92
2018-08-18T05:45:23.494Z,981.92
2018-08-18T05:46:23.739Z,981.92
2018-08-18T05:47:24.010Z,981.90
2018-08-18T05:48:24.227Z,981.94
2018-08-18T05:49:24.472Z,981.92
2018-08-18T05:50:24.721Z,981.90
2018-08-18T05:51:24.960Z,981.91
2018-08-18T05:52:25.204Z,981.92
2018-08-18T05:53:25.447Z,981.93
2018-08-18T05:54:25.695Z,981.94
2018-08-18T05:55:25.938Z,981.91
2018-08-18T05:56:26.182Z,981.96
2018-08-18T05:57:26.426Z,981.95
2018-08-18T05:58:26.673Z,981.99
2018-08-18T05:59:26.915Z,981.98
2018-08-18T06:00:27.171Z,981.96
2018-08-18T06:01:27.403Z,982.00
2018-08-18T06:02:27.648Z,981.97
2018-08-18T06:03:27.893Z,981.98
2018-08-18T06:04:28.139Z,981.98
2018-08-18T06:05:28.383Z,982.01
2018-08-18T06:06:28.628Z,981.98
2018-08-18T06:07:28.873Z,982.05
2018-08-18T06:08:29.222Z,982.06
2018-08-18T06:09:29.560Z,982.04
2018-08-18T06:10:29.810Z,982.07
2018-08-18T06:11:30.047Z,982.07
2018-08-18T06:12:30.309Z,982.08
2018-08-18T06:13:30.624Z,982.06
2018-08-18T06:14:30.785Z,982.06
2018-08-18T06:15:31.130Z,982.07
2018-08-18T06:16:31.384Z,982.05
2018-08-18T06:17:31.625Z,982.06
2018-08-18T06:18:31.972Z,982.09
2018-08-18T06:19:32.174Z,982.07
2018-08-18T06:20:32.423Z,982.11
2018-08-18T06:21:32.772Z,982.12
2018-08-18T06:22:33.032Z,982.10
2018-08-18T06:23:33.273Z,982.10
2018-08-18T06:24:33.541Z,982.14
2018-08-18T06:25:33.909Z,982.12
2018-08-18T06:26:34.141Z,982.13
2018-08-18T06:27:34.384Z,982.15
2018-08-18T06:28:34.693Z,982.14
2018-08-18T06:29:34.934Z,982.15
2018-08-18T06:30:35.281Z,982.17
2018-08-18T06:31:35.682Z,982.13
2018-08-18T06:32:36.072Z,982.16
2018-08-18T06:33:36.310Z,982.14
2018-08-18T06:34:36.611Z,982.17
2018-08-18T06:35:37.002Z,982.19
2018-08-18T06:36:37.240Z,982.17
2018-08-18T06:37:37.482Z,982.18
2018-08-18T06:38:37.742Z,982.21
2018-08-18T06:39:37.974Z,982.18
2018-08-18T06:40:38.206Z,982.21
2018-08-18T06:41:38.526Z,982.20
2018-08-18T06:42:38.686Z,982.22
2018-08-18T06:43:38.926Z,982.21
2018-08-18T06:44:39.160Z,982.22
2018-08-18T06:45:39.465Z,982.23
2018-08-18T06:46:39.712Z,982.23
2018-08-18T06:47:39.948Z,982.23
2018-08-18T06:48:40.196Z,982.23
2018-08-18T06:49:41.447Z,982.24
2018-08-18T06:50:40.771Z,982.22
2018-08-18T06:51:41.026Z,982.25
2018-08-18T06:52:41.336Z,982.27
2018-08-18T06:53:41.659Z,982.26
2018-08-18T06:54:41.970Z,982.26
2018-08-18T06:55:42.679Z,982.27
2018-08-18T06:56:42.469Z,982.26
2018-08-18T06:57:42.726Z,982.26
2018-08-18T06:58:42.944Z,982.27
2018-08-18T06:59:43.191Z,982.26
2018-08-18T07:00:43.579Z,982.26
2018-08-18T07:01:43.837Z,982.26
2018-08-18T07:02:44.081Z,982.27
2018-08-18T07:03:44.422Z,982.28
2018-08-18T07:04:44.663Z,982.23
2018-08-18T07:05:44.910Z,982.26
2018-08-18T07:06:45.149Z,982.29
2018-08-18T07:07:45.393Z,982.30
2018-08-18T07:08:45.937Z,982.32
2018-08-18T07:09:45.859Z,982.32
2018-08-18T07:10:46.105Z,982.33
2018-08-18T07:11:46.342Z,982.33
2018-08-18T07:12:46.598Z,982.33
2018-08-18T07:13:46.832Z,982.30
2018-08-18T07:14:47.089Z,982.36
2018-08-18T07:15:47.332Z,982.36
2018-08-18T07:16:47.585Z,982.37
2018-08-18T07:17:47.819Z,982.34
2018-08-18T07:18:48.074Z,982.35
2018-08-18T07:19:48.325Z,982.34
2018-08-18T07:20:48.563Z,982.35
2018-08-18T07:21:48.821Z,982.36
2018-08-18T07:22:49.069Z,982.39
2018-08-18T07:23:49.308Z,982.39
2018-08-18T07:24:49.559Z,982.43
2018-08-18T07:25:49.799Z,982.49
2018-08-18T07:26:50.037Z,982.48
2018-08-18T07:27:50.289Z,982.48
2018-08-18T07:28:50.701Z,982.54
2018-08-18T07:29:50.824Z,982.52
2018-08-18T07:30:51.029Z,982.50
2018-08-18T07:31:51.260Z,982.55
2018-08-18T07:32:51.505Z,982.56
2018-08-18T07:33:51.760Z,982.54
2018-08-18T07:34:52.011Z,982.58
2018-08-18T07:35:52.258Z,982.58
2018-08-18T07:36:52.520Z,982.56
2018-08-18T07:37:52.764Z,982.59
2018-08-18T07:38:53.006Z,982.54
2018-08-18T07:39:53.265Z,982.56
2018-08-18T07:40:53.507Z,982.62
2018-08-18T07:41:53.767Z,982.63
2018-08-18T07:42:54.007Z,982.64
2018-08-18T07:43:54.263Z,982.71
2018-08-18T07:44:54.504Z,982.73
2018-08-18T07:45:54.747Z,982.67
2018-08-18T07:46:54.998Z,982.71
2018-08-18T07:47:55.263Z,982.74
2018-08-18T07:48:55.486Z,982.70
2018-08-18T07:49:55.750Z,982.73
2018-08-18T07:50:55.990Z,982.78
2018-08-18T07:51:56.231Z,982.76
2018-08-18T07:52:56.513Z,982.77
2018-08-18T07:53:56.753Z,982.81
2018-08-18T07:54:57.001Z,982.86
2018-08-18T07:55:57.250Z,982.88
2018-08-18T07:56:57.507Z,982.92
2018-08-18T07:57:57.744Z,982.92
2018-08-18T07:58:57.994Z,982.83
2018-08-18T07:59:58.243Z,982.95
2018-08-18T08:00:58.475Z,983.00
2018-08-18T08:01:58.718Z,982.96
2018-08-18T08:02:58.982Z,982.99
2018-08-18T08:03:59.227Z,983.00
2018-08-18T08:04:59.500Z,982.96
2018-08-18T08:05:59.737Z,982.93
2018-08-18T08:06:59.981Z,982.95
2018-08-18T08:08:00.227Z,982.93
2018-08-18T08:09:00.484Z,982.91
2018-08-18T08:10:00.943Z,982.87
2018-08-18T08:11:00.963Z,982.84
2018-08-18T08:12:01.215Z,982.89
2018-08-18T08:13:01.559Z,982.87
2018-08-18T08:14:01.718Z,982.94
2018-08-18T08:15:01.970Z,982.97
2018-08-18T08:16:02.222Z,982.96
2018-08-18T08:17:02.473Z,983.07
2018-08-18T08:18:02.773Z,983.01
2018-08-18T08:19:02.982Z,983.02
2018-08-18T08:20:03.230Z,983.00
2018-08-18T08:21:03.482Z,983.03
2018-08-18T08:22:03.740Z,983.05
2018-08-18T08:23:03.989Z,983.02
2018-08-18T08:24:04.244Z,983.00
2018-08-18T08:25:04.492Z,982.99
2018-08-18T08:26:04.743Z,982.99
2018-08-18T08:27:04.999Z,983.02
2018-08-18T08:28:05.252Z,983.01
2018-08-18T08:29:05.505Z,983.02
2018-08-18T08:30:05.759Z,983.02
2018-08-18T08:31:06.013Z,983.06
2018-08-18T08:32:06.267Z,983.05
2018-08-18T08:33:06.508Z,983.09
2018-08-18T08:34:06.802Z,983.10
2018-08-18T08:35:07.052Z,983.11
2018-08-18T08:36:07.304Z,983.14
2018-08-18T08:37:07.557Z,983.24
2018-08-18T08:38:07.807Z,983.35
2018-08-18T08:39:08.057Z,983.42
2018-08-18T08:40:08.316Z,983.37
2018-08-18T08:41:08.569Z,983.72
2018-08-18T08:42:08.822Z,983.75
2018-08-18T08:43:09.127Z,983.62
2018-08-18T08:44:09.324Z,983.18
2018-08-18T08:45:09.578Z,983.32
2018-08-18T08:46:09.830Z,983.30
2018-08-18T08:47:10.087Z,983.32
2018-08-18T08:48:10.340Z,983.28
2018-08-18T08:49:10.689Z,983.25
2018-08-18T08:50:10.851Z,983.27
2018-08-18T08:51:11.104Z,983.24
2018-08-18T08:52:11.359Z,982.97
2018-08-18T08:53:11.604Z,983.04
2018-08-18T08:54:11.869Z,983.10
2018-08-18T08:55:12.126Z,983.15
2018-08-18T08:56:12.378Z,983.16
2018-08-18T08:57:12.630Z,983.17
2018-08-18T08:58:12.885Z,983.16
2018-08-18T08:59:13.138Z,983.17
2018-08-18T09:00:13.393Z,983.19
2018-08-18T09:01:13.649Z,983.22
2018-08-18T09:02:13.903Z,983.26
2018-08-18T09:03:14.167Z,983.29
2018-08-18T09:04:14.413Z,983.26
2018-08-18T09:05:14.669Z,983.31
2018-08-18T09:06:14.924Z,983.35
2018-08-18T09:07:15.173Z,983.37
2018-08-18T09:08:15.430Z,983.39
2018-08-18T09:09:15.685Z,983.43
2018-08-18T09:10:15.997Z,983.42
2018-08-18T09:11:16.195Z,983.46
2018-08-18T09:12:16.448Z,983.51
2018-08-18T09:13:16.703Z,983.53
2018-08-18T09:14:16.957Z,983.56
2018-08-18T09:15:17.212Z,983.65
2018-08-18T09:16:17.461Z,983.82
2018-08-18T09:17:17.714Z,983.89
2018-08-18T09:18:17.972Z,983.88
2018-08-18T09:19:18.225Z,983.85
2018-08-18T09:20:18.480Z,983.91
2018-08-18T09:21:18.735Z,984.04
2018-08-18T09:22:18.990Z,984.09
2018-08-18T09:23:19.245Z,984.15
2018-08-18T09:24:19.500Z,984.12
2018-08-18T09:25:19.760Z,984.21
2018-08-18T09:26:20.063Z,983.60
2018-08-18T09:27:20.268Z,983.66
2018-08-18T09:28:20.524Z,983.07
2018-08-18T09:29:20.780Z,983.04
2018-08-18T09:30:21.038Z,983.06
2018-08-18T09:31:21.295Z,982.99
2018-08-18T09:32:21.551Z,982.99
2018-08-18T09:33:21.807Z,982.99
2018-08-18T09:34:22.065Z,983.12
2018-08-18T09:35:22.320Z,983.04
2018-08-18T09:36:22.629Z,983.22
2018-08-18T09:37:22.831Z,983.22
2018-08-18T09:38:23.090Z,983.85
2018-08-18T09:39:23.346Z,983.00
2018-08-18T09:40:23.600Z,983.25
2018-08-18T09:41:23.855Z,983.02
2018-08-18T09:42:24.113Z,982.93
2018-08-18T09:43:24.367Z,982.90
2018-08-18T09:44:24.623Z,982.92
2018-08-18T09:45:33.938Z,982.88
2018-08-18T09:46:34.871Z,982.88
2018-08-18T09:47:26.356Z,982.83
2018-08-18T09:48:35.829Z,982.89
2018-08-18T09:49:26.143Z,982.89
2018-08-18T09:50:26.139Z,982.92
2018-08-18T09:53:42.818Z,982.94
2018-08-18T09:54:43.014Z,983.50
2018-08-18T09:55:45.121Z,983.60
2018-08-18T09:56:44.834Z,983.63
2018-08-18T09:57:46.294Z,983.05
2018-08-18T09:58:44.028Z,982.89
2018-08-18T09:59:44.271Z,982.85
2018-08-18T10:00:44.711Z,982.84
2018-08-18T10:01:45.919Z,982.84
2018-08-18T10:02:44.974Z,982.83
2018-08-18T10:03:45.212Z,982.86
2018-08-18T10:04:45.460Z,982.81
2018-08-18T10:05:45.699Z,982.85
2018-08-18T10:06:46.005Z,982.82
2018-08-18T10:07:46.191Z,982.88
2018-08-18T10:08:46.433Z,982.89
2018-08-18T10:09:46.686Z,982.96
2018-08-18T10:10:47.003Z,982.99
2018-08-18T10:11:47.170Z,983.30
2018-08-18T10:12:47.437Z,983.43
2018-08-18T10:13:47.678Z,983.39
2018-08-18T10:14:47.942Z,982.99
2018-08-18T10:15:48.185Z,983.07
2018-08-18T10:16:48.427Z,983.31
2018-08-18T10:17:48.670Z,983.23
2018-08-18T10:18:48.946Z,983.06
2018-08-18T10:19:49.176Z,982.95
2018-08-18T10:20:49.462Z,983.11
2018-08-18T10:21:49.716Z,982.83
2018-08-18T10:22:50.067Z,982.91
2018-08-18T10:24:09.010Z,983.33
2018-08-18T10:24:50.608Z,982.91
2018-08-18T10:25:50.887Z,983.40
2018-08-18T10:26:51.101Z,983.26
2018-08-18T10:27:51.354Z,982.85
2018-08-18T10:28:51.603Z,982.84
2018-08-18T10:29:51.860Z,982.85
2018-08-18T10:30:52.110Z,982.88
2018-08-18T10:31:54.634Z,983.01
2018-08-18T10:32:52.873Z,983.01
2018-08-18T10:33:53.124Z,982.88
2018-08-18T10:34:53.378Z,982.96
2018-08-18T10:35:53.694Z,982.88
2018-08-18T10:36:53.979Z,982.96
2018-08-18T10:37:54.253Z,982.88
2018-08-18T10:38:54.515Z,982.97
2018-08-18T10:39:54.765Z,983.16
2018-08-18T10:40:55.036Z,983.39
2018-08-18T10:41:55.316Z,983.02
2018-08-18T10:42:55.556Z,983.08
2018-08-18T10:43:55.810Z,983.29
2018-08-18T10:44:56.111Z,983.57
2018-08-18T10:45:56.350Z,983.70
2018-08-18T10:47:05.277Z,983.75
2018-08-18T10:47:56.981Z,983.71
2018-08-18T10:48:57.226Z,983.78
2018-08-18T10:49:57.488Z,983.81
2018-08-18T10:50:57.741Z,983.82
2018-08-18T10:51:57.980Z,982.92
2018-08-18T10:52:58.272Z,983.81
2018-08-18T10:53:58.484Z,983.77
2018-08-18T10:54:58.738Z,982.68
2018-08-18T10:55:58.988Z,982.71
2018-08-18T10:56:59.249Z,982.68
2018-08-18T10:57:59.541Z,982.64
2018-08-18T10:58:59.803Z,982.63
2018-08-18T11:00:00.024Z,982.65
2018-08-18T11:01:00.307Z,982.63
2018-08-18T11:02:00.525Z,982.65
2018-08-18T11:03:00.783Z,982.63
2018-08-18T11:04:01.066Z,982.63
2018-08-18T11:05:01.295Z,982.68
2018-08-18T11:06:01.532Z,982.71
2018-08-18T11:07:01.789Z,983.07
2018-08-18T11:08:02.045Z,983.32
2018-08-18T11:09:02.291Z,983.32
2018-08-18T11:10:02.574Z,983.25
2018-08-18T11:11:02.801Z,983.30
2018-08-18T11:12:03.051Z,983.27
2018-08-18T11:13:03.303Z,983.33
2018-08-18T11:14:03.555Z,983.37
2018-08-18T11:15:03.815Z,983.48
2018-08-18T11:16:04.071Z,983.60
2018-08-18T11:17:04.351Z,983.60
2018-08-18T11:18:04.623Z,983.59
2018-08-18T11:19:04.877Z,983.63
2018-08-18T11:20:05.129Z,983.73
2018-08-18T11:21:05.388Z,983.72
2018-08-18T11:22:05.644Z,983.63
2018-08-18T11:23:05.905Z,982.94
2018-08-18T11:24:06.176Z,983.32
2018-08-18T11:26:39.629Z,983.43
2018-08-18T11:27:39.800Z,983.43
2018-08-18T11:28:40.165Z,982.78
2018-08-18T11:29:40.309Z,983.40
2018-08-18T11:30:40.555Z,983.44
2018-08-18T11:31:40.839Z,983.50
2018-08-18T11:32:41.158Z,983.41
2018-08-18T11:33:41.500Z,982.91
2018-08-18T11:34:41.705Z,983.17
2018-08-18T11:35:42.541Z,983.11
2018-08-18T11:36:42.385Z,983.10
2018-08-18T11:37:42.692Z,983.06
2018-08-18T11:38:42.973Z,983.05
2018-08-18T11:39:43.244Z,983.00
2018-08-18T11:40:43.574Z,983.07
2018-08-18T11:41:43.828Z,983.00
2018-08-18T11:42:44.105Z,983.04
2018-08-18T11:43:44.377Z,982.99
2018-08-18T11:44:44.600Z,983.03
2018-08-18T11:45:45.066Z,983.02
2018-08-18T11:46:45.114Z,983.01
2018-08-18T11:47:45.360Z,983.00
2018-08-18T11:48:45.680Z,982.97
2018-08-18T11:49:45.856Z,982.98
2018-08-18T11:50:46.189Z,982.92
2018-08-18T11:51:46.418Z,982.91
2018-08-18T11:52:46.674Z,982.87
2018-08-18T11:53:46.956Z,982.90
2018-08-18T11:54:47.211Z,982.83
2018-08-18T11:55:47.469Z,982.83
2018-08-18T11:56:47.727Z,982.87
2018-08-18T11:57:47.977Z,982.88
2018-08-18T11:58:48.238Z,982.84
2018-08-18T11:59:48.496Z,982.86
2018-08-18T12:00:48.753Z,982.87
2018-08-18T12:01:49.027Z,982.84
2018-08-18T12:02:49.282Z,982.78
2018-08-18T12:03:49.529Z,982.76
2018-08-18T12:04:49.789Z,982.77
2018-08-18T12:05:50.048Z,982.31
2018-08-18T12:06:50.301Z,982.60
2018-08-18T12:07:50.554Z,982.37
2018-08-18T12:08:50.816Z,982.47
2018-08-18T12:09:51.061Z,982.44
2018-08-18T12:10:51.461Z,982.33
2018-08-18T12:11:51.581Z,982.55
2018-08-18T12:12:51.869Z,982.68
2018-08-18T12:13:52.122Z,982.28
2018-08-18T12:14:52.369Z,982.20
2018-08-18T12:15:52.627Z,982.24
2018-08-18T12:16:52.882Z,982.30
2018-08-18T12:17:53.133Z,982.26
2018-08-18T12:18:53.381Z,982.40
2018-08-18T12:19:53.624Z,982.32
2018-08-18T12:20:53.891Z,982.61
2018-08-18T12:21:54.155Z,982.46
2018-08-18T12:22:54.407Z,982.57
2018-08-18T12:23:54.656Z,982.54
2018-08-18T12:24:54.909Z,982.50
2018-08-18T12:25:55.170Z,982.52
2018-08-18T12:26:55.459Z,982.51
2018-08-18T12:27:55.721Z,982.46
2018-08-18T12:28:55.976Z,982.45
2018-08-18T12:29:56.363Z,982.45
2018-08-18T12:30:56.480Z,982.47
2018-08-18T12:31:56.738Z,982.49
2018-08-18T12:32:57.003Z,982.39
2018-08-18T12:33:57.281Z,982.36
2018-08-18T12:34:57.570Z,982.40
2018-08-18T12:35:57.801Z,982.35